sensor_id;sensor_type;location;lat;lon;timestamp;P1;durP1;ratioP1;P2;durP2;ratioP2
53718;SDS011;39616;48.872;9.390;2023-06-19T00:01:09;5.35;;;4.32;;
53718;SDS011;39616;48.872;9.390;2023-06-19T00:03:40;11.77;;;4.63;;
53718;SDS011;39616;48.872;9.390;2023-06-19T00:06:10;5.22;;;3.72;;
53718;SDS011;39616;48.872;9.390;2023-06-19T00:08:42;4.88;;;4.32;;
53718;SDS011;39616;48.872;9.390;2023-06-19T00:11:12;4.80;;;4.25;;
53718;SDS011;39616;48.872;9.390;2023-06-19T00:13:43;4.63;;;4.13;;
53718;SDS011;39616;48.872;9.390;2023-06-19T00:16:13;6.25;;;4.07;;
53718;SDS011;39616;48.872;9.390;2023-06-19T00:18:43;5.72;;;4.28;;
53718;SDS011;39616;48.872;9.390;2023-06-19T00:21:14;6.88;;;3.97;;
53718;SDS011;39616;48.872;9.390;2023-06-19T00:23:44;6.63;;;4.43;;
53718;SDS011;39616;48.872;9.390;2023-06-19T00:26:14;6.88;;;4.70;;
53718;SDS011;39616;48.872;9.390;2023-06-19T00:28:44;7.85;;;4.60;;
53718;SDS011;39616;48.872;9.390;2023-06-19T00:31:17;6.65;;;4.45;;
53718;SDS011;39616;48.872;9.390;2023-06-19T00:33:48;5.30;;;4.75;;
53718;SDS011;39616;48.872;9.390;2023-06-19T00:36:19;4.60;;;4.20;;
53718;SDS011;39616;48.872;9.390;2023-06-19T00:38:54;4.68;;;4.18;;
53718;SDS011;39616;48.872;9.390;2023-06-19T00:41:25;7.38;;;4.53;;
53718;SDS011;39616;48.872;9.390;2023-06-19T00:43:57;5.35;;;4.22;;
53718;SDS011;39616;48.872;9.390;2023-06-19T00:46:27;5.10;;;4.20;;
53718;SDS011;39616;48.872;9.390;2023-06-19T00:48:59;4.47;;;4.00;;
53718;SDS011;39616;48.872;9.390;2023-06-19T00:51:29;6.90;;;4.22;;
53718;SDS011;39616;48.872;9.390;2023-06-19T00:53:59;5.53;;;4.63;;
53718;SDS011;39616;48.872;9.390;2023-06-19T00:56:30;8.32;;;4.80;;
53718;SDS011;39616;48.872;9.390;2023-06-19T00:59:01;5.45;;;4.80;;
53718;SDS011;39616;48.872;9.390;2023-06-19T01:01:37;6.40;;;4.68;;
53718;SDS011;39616;48.872;9.390;2023-06-19T01:04:07;6.65;;;4.75;;
53718;SDS011;39616;48.872;9.390;2023-06-19T01:06:42;7.07;;;4.70;;
53718;SDS011;39616;48.872;9.390;2023-06-19T01:09:15;5.30;;;3.83;;
53718;SDS011;39616;48.872;9.390;2023-06-19T01:11:49;4.35;;;4.05;;
53718;SDS011;39616;48.872;9.390;2023-06-19T01:14:25;6.60;;;4.55;;
53718;SDS011;39616;48.872;9.390;2023-06-19T01:16:58;4.30;;;3.90;;
53718;SDS011;39616;48.872;9.390;2023-06-19T01:19:29;5.88;;;4.18;;
53718;SDS011;39616;48.872;9.390;2023-06-19T01:22:01;5.20;;;4.40;;
53718;SDS011;39616;48.872;9.390;2023-06-19T01:24:32;5.10;;;4.60;;
53718;SDS011;39616;48.872;9.390;2023-06-19T01:27:03;7.57;;;4.20;;
53718;SDS011;39616;48.872;9.390;2023-06-19T01:29:33;6.03;;;4.93;;
53718;SDS011;39616;48.872;9.390;2023-06-19T01:32:04;7.45;;;3.35;;
53718;SDS011;39616;48.872;9.390;2023-06-19T01:34:39;11.35;;;3.90;;
53718;SDS011;39616;48.872;9.390;2023-06-19T01:37:10;6.97;;;4.40;;
53718;SDS011;39616;48.872;9.390;2023-06-19T01:39:41;7.43;;;4.57;;
53718;SDS011;39616;48.872;9.390;2023-06-19T01:42:13;9.23;;;4.47;;
53718;SDS011;39616;48.872;9.390;2023-06-19T01:44:45;6.28;;;4.68;;
53718;SDS011;39616;48.872;9.390;2023-06-19T01:47:15;5.30;;;3.58;;
53718;SDS011;39616;48.872;9.390;2023-06-19T01:49:49;13.50;;;4.05;;
53718;SDS011;39616;48.872;9.390;2023-06-19T01:52:20;10.07;;;3.80;;
53718;SDS011;39616;48.872;9.390;2023-06-19T01:54:50;7.25;;;4.20;;
53718;SDS011;39616;48.872;9.390;2023-06-19T01:57:21;4.28;;;3.42;;
53718;SDS011;39616;48.872;9.390;2023-06-19T01:59:52;7.50;;;2.72;;
53718;SDS011;39616;48.872;9.390;2023-06-19T02:02:22;4.22;;;3.17;;
53718;SDS011;39616;48.872;9.390;2023-06-19T02:04:52;6.00;;;2.92;;
53718;SDS011;39616;48.872;9.390;2023-06-19T02:07:22;6.60;;;3.60;;
53718;SDS011;39616;48.872;9.390;2023-06-19T02:09:53;5.93;;;3.83;;
53718;SDS011;39616;48.872;9.390;2023-06-19T02:12:23;4.95;;;3.50;;
53718;SDS011;39616;48.872;9.390;2023-06-19T02:14:54;5.15;;;3.88;;
53718;SDS011;39616;48.872;9.390;2023-06-19T02:17:24;3.80;;;3.25;;
53718;SDS011;39616;48.872;9.390;2023-06-19T02:19:54;4.65;;;3.80;;
53718;SDS011;39616;48.872;9.390;2023-06-19T02:22:24;5.18;;;3.47;;
53718;SDS011;39616;48.872;9.390;2023-06-19T02:24:55;5.47;;;3.78;;
53718;SDS011;39616;48.872;9.390;2023-06-19T02:27:25;12.90;;;4.03;;
53718;SDS011;39616;48.872;9.390;2023-06-19T02:29:55;3.10;;;2.83;;
53718;SDS011;39616;48.872;9.390;2023-06-19T02:32:26;4.35;;;3.20;;
53718;SDS011;39616;48.872;9.390;2023-06-19T02:34:57;5.75;;;2.35;;
53718;SDS011;39616;48.872;9.390;2023-06-19T02:37:27;4.93;;;2.80;;
53718;SDS011;39616;48.872;9.390;2023-06-19T02:39:59;4.78;;;3.50;;
53718;SDS011;39616;48.872;9.390;2023-06-19T02:42:30;6.40;;;3.15;;
53718;SDS011;39616;48.872;9.390;2023-06-19T02:45:00;2.67;;;2.47;;
53718;SDS011;39616;48.872;9.390;2023-06-19T02:47:33;3.97;;;2.65;;
53718;SDS011;39616;48.872;9.390;2023-06-19T02:50:03;4.60;;;3.08;;
53718;SDS011;39616;48.872;9.390;2023-06-19T02:52:34;3.80;;;2.90;;
53718;SDS011;39616;48.872;9.390;2023-06-19T02:55:04;4.28;;;3.03;;
53718;SDS011;39616;48.872;9.390;2023-06-19T02:57:37;3.22;;;2.88;;
53718;SDS011;39616;48.872;9.390;2023-06-19T03:00:07;3.80;;;2.83;;
53718;SDS011;39616;48.872;9.390;2023-06-19T03:02:40;2.75;;;2.55;;
53718;SDS011;39616;48.872;9.390;2023-06-19T03:05:13;6.22;;;2.50;;
53718;SDS011;39616;48.872;9.390;2023-06-19T03:07:47;6.40;;;2.40;;
53718;SDS011;39616;48.872;9.390;2023-06-19T03:10:17;3.10;;;2.70;;
53718;SDS011;39616;48.872;9.390;2023-06-19T03:12:47;4.43;;;2.78;;
53718;SDS011;39616;48.872;9.390;2023-06-19T03:15:17;2.75;;;2.53;;
53718;SDS011;39616;48.872;9.390;2023-06-19T03:17:48;5.03;;;2.83;;
53718;SDS011;39616;48.872;9.390;2023-06-19T03:20:18;5.15;;;3.00;;
53718;SDS011;39616;48.872;9.390;2023-06-19T03:22:49;3.78;;;2.65;;
53718;SDS011;39616;48.872;9.390;2023-06-19T03:25:19;2.75;;;2.55;;
53718;SDS011;39616;48.872;9.390;2023-06-19T03:27:50;4.07;;;2.53;;
53718;SDS011;39616;48.872;9.390;2023-06-19T03:30:20;3.55;;;3.17;;
53718;SDS011;39616;48.872;9.390;2023-06-19T03:32:50;3.00;;;2.70;;
53718;SDS011;39616;48.872;9.390;2023-06-19T03:35:21;4.18;;;3.03;;
53718;SDS011;39616;48.872;9.390;2023-06-19T03:37:51;5.32;;;3.42;;
53718;SDS011;39616;48.872;9.390;2023-06-19T03:40:21;5.00;;;3.10;;
53718;SDS011;39616;48.872;9.390;2023-06-19T03:42:52;3.88;;;3.40;;
53718;SDS011;39616;48.872;9.390;2023-06-19T03:45:22;4.25;;;3.13;;
53718;SDS011;39616;48.872;9.390;2023-06-19T03:47:53;3.22;;;2.72;;
53718;SDS011;39616;48.872;9.390;2023-06-19T03:50:23;5.40;;;3.35;;
53718;SDS011;39616;48.872;9.390;2023-06-19T03:52:53;5.28;;;3.22;;
53718;SDS011;39616;48.872;9.390;2023-06-19T03:55:23;5.15;;;3.42;;
53718;SDS011;39616;48.872;9.390;2023-06-19T03:57:54;3.35;;;3.05;;
53718;SDS011;39616;48.872;9.390;2023-06-19T04:00:24;4.28;;;2.95;;
53718;SDS011;39616;48.872;9.390;2023-06-19T04:02:55;5.03;;;3.33;;
53718;SDS011;39616;48.872;9.390;2023-06-19T04:05:25;5.50;;;2.75;;
53718;SDS011;39616;48.872;9.390;2023-06-19T04:07:56;2.75;;;2.50;;
53718;SDS011;39616;48.872;9.390;2023-06-19T04:10:26;2.42;;;2.22;;
53718;SDS011;39616;48.872;9.390;2023-06-19T04:12:56;2.60;;;2.40;;
53718;SDS011;39616;48.872;9.390;2023-06-19T04:15:27;5.20;;;2.28;;
53718;SDS011;39616;48.872;9.390;2023-06-19T04:17:57;2.28;;;1.90;;
53718;SDS011;39616;48.872;9.390;2023-06-19T04:20:27;2.17;;;2.00;;
53718;SDS011;39616;48.872;9.390;2023-06-19T04:22:58;5.07;;;1.88;;
53718;SDS011;39616;48.872;9.390;2023-06-19T04:25:28;7.88;;;2.33;;
53718;SDS011;39616;48.872;9.390;2023-06-19T04:27:58;3.35;;;1.95;;
53718;SDS011;39616;48.872;9.390;2023-06-19T04:30:29;3.22;;;1.88;;
53718;SDS011;39616;48.872;9.390;2023-06-19T04:33:00;6.45;;;2.15;;
53718;SDS011;39616;48.872;9.390;2023-06-19T04:35:31;1.83;;;1.73;;
53718;SDS011;39616;48.872;9.390;2023-06-19T04:38:01;2.25;;;1.90;;
53718;SDS011;39616;48.872;9.390;2023-06-19T04:40:31;2.28;;;1.65;;
53718;SDS011;39616;48.872;9.390;2023-06-19T04:43:02;2.50;;;1.95;;
53718;SDS011;39616;48.872;9.390;2023-06-19T04:45:35;2.15;;;1.58;;
53718;SDS011;39616;48.872;9.390;2023-06-19T04:48:05;1.85;;;1.60;;
53718;SDS011;39616;48.872;9.390;2023-06-19T04:50:36;1.63;;;1.52;;
53718;SDS011;39616;48.872;9.390;2023-06-19T04:53:06;4.60;;;1.90;;
53718;SDS011;39616;48.872;9.390;2023-06-19T04:55:37;1.73;;;1.63;;
53718;SDS011;39616;48.872;9.390;2023-06-19T04:58:07;2.17;;;1.75;;
53718;SDS011;39616;48.872;9.390;2023-06-19T05:00:37;3.33;;;1.63;;
53718;SDS011;39616;48.872;9.390;2023-06-19T05:03:08;1.90;;;1.80;;
53718;SDS011;39616;48.872;9.390;2023-06-19T05:05:38;5.28;;;2.08;;
53718;SDS011;39616;48.872;9.390;2023-06-19T05:08:08;1.60;;;1.40;;
53718;SDS011;39616;48.872;9.390;2023-06-19T05:10:39;1.90;;;1.55;;
53718;SDS011;39616;48.872;9.390;2023-06-19T05:13:09;3.45;;;1.55;;
53718;SDS011;39616;48.872;9.390;2023-06-19T05:15:39;2.00;;;1.80;;
53718;SDS011;39616;48.872;9.390;2023-06-19T05:18:09;1.90;;;1.58;;
53718;SDS011;39616;48.872;9.390;2023-06-19T05:20:40;3.45;;;1.85;;
53718;SDS011;39616;48.872;9.390;2023-06-19T05:23:10;2.28;;;1.80;;
53718;SDS011;39616;48.872;9.390;2023-06-19T05:25:40;4.15;;;1.70;;
53718;SDS011;39616;48.872;9.390;2023-06-19T05:28:12;1.70;;;1.60;;
53718;SDS011;39616;48.872;9.390;2023-06-19T05:30:43;1.98;;;1.70;;
53718;SDS011;39616;48.872;9.390;2023-06-19T05:33:13;4.82;;;1.83;;
53718;SDS011;39616;48.872;9.390;2023-06-19T05:35:45;2.00;;;1.80;;
53718;SDS011;39616;48.872;9.390;2023-06-19T05:38:22;4.18;;;1.73;;
53718;SDS011;39616;48.872;9.390;2023-06-19T05:40:53;2.50;;;1.48;;
53718;SDS011;39616;48.872;9.390;2023-06-19T05:43:23;1.92;;;1.80;;
53718;SDS011;39616;48.872;9.390;2023-06-19T05:45:56;2.00;;;1.80;;
53718;SDS011;39616;48.872;9.390;2023-06-19T05:48:28;3.63;;;1.45;;
53718;SDS011;39616;48.872;9.390;2023-06-19T05:50:58;3.67;;;1.58;;
53718;SDS011;39616;48.872;9.390;2023-06-19T05:53:29;2.28;;;1.70;;
53718;SDS011;39616;48.872;9.390;2023-06-19T05:56:01;2.00;;;1.80;;
53718;SDS011;39616;48.872;9.390;2023-06-19T05:58:31;2.60;;;1.88;;
53718;SDS011;39616;48.872;9.390;2023-06-19T06:01:01;2.83;;;1.80;;
53718;SDS011;39616;48.872;9.390;2023-06-19T06:03:33;5.82;;;1.85;;
53718;SDS011;39616;48.872;9.390;2023-06-19T06:06:03;2.50;;;1.85;;
53718;SDS011;39616;48.872;9.390;2023-06-19T06:08:34;2.10;;;1.90;;
53718;SDS011;39616;48.872;9.390;2023-06-19T06:11:05;2.80;;;2.10;;
53718;SDS011;39616;48.872;9.390;2023-06-19T06:13:36;2.25;;;2.00;;
53718;SDS011;39616;48.872;9.390;2023-06-19T06:16:06;3.35;;;1.80;;
53718;SDS011;39616;48.872;9.390;2023-06-19T06:18:37;3.25;;;2.20;;
53718;SDS011;39616;48.872;9.390;2023-06-19T06:21:07;2.63;;;1.83;;
53718;SDS011;39616;48.872;9.390;2023-06-19T06:23:38;2.10;;;1.88;;
53718;SDS011;39616;48.872;9.390;2023-06-19T06:26:11;4.63;;;1.90;;
53718;SDS011;39616;48.872;9.390;2023-06-19T06:28:41;3.20;;;1.80;;
53718;SDS011;39616;48.872;9.390;2023-06-19T06:31:11;2.00;;;1.90;;
53718;SDS011;39616;48.872;9.390;2023-06-19T06:33:42;2.13;;;1.73;;
53718;SDS011;39616;48.872;9.390;2023-06-19T06:36:14;5.90;;;1.80;;
53718;SDS011;39616;48.872;9.390;2023-06-19T06:38:44;4.90;;;1.60;;
53718;SDS011;39616;48.872;9.390;2023-06-19T06:41:15;1.70;;;1.60;;
53718;SDS011;39616;48.872;9.390;2023-06-19T06:43:45;2.20;;;2.00;;
53718;SDS011;39616;48.872;9.390;2023-06-19T06:46:16;2.95;;;1.60;;
53718;SDS011;39616;48.872;9.390;2023-06-19T06:48:46;2.80;;;1.85;;
53718;SDS011;39616;48.872;9.390;2023-06-19T06:51:16;2.08;;;1.40;;
53718;SDS011;39616;48.872;9.390;2023-06-19T06:53:46;2.38;;;1.60;;
53718;SDS011;39616;48.872;9.390;2023-06-19T06:56:17;3.60;;;1.50;;
53718;SDS011;39616;48.872;9.390;2023-06-19T06:58:47;2.22;;;1.90;;
53718;SDS011;39616;48.872;9.390;2023-06-19T07:01:18;1.70;;;1.60;;
53718;SDS011;39616;48.872;9.390;2023-06-19T07:03:48;2.10;;;1.30;;
53718;SDS011;39616;48.872;9.390;2023-06-19T07:06:18;2.08;;;1.52;;
53718;SDS011;39616;48.872;9.390;2023-06-19T07:08:48;2.30;;;1.20;;
53718;SDS011;39616;48.872;9.390;2023-06-19T07:11:19;1.40;;;1.27;;
53718;SDS011;39616;48.872;9.390;2023-06-19T07:13:49;3.95;;;1.48;;
53718;SDS011;39616;48.872;9.390;2023-06-19T07:16:20;2.35;;;1.30;;
53718;SDS011;39616;48.872;9.390;2023-06-19T07:18:50;1.58;;;1.33;;
53718;SDS011;39616;48.872;9.390;2023-06-19T07:21:20;1.67;;;1.40;;
53718;SDS011;39616;48.872;9.390;2023-06-19T07:23:51;1.35;;;1.17;;
53718;SDS011;39616;48.872;9.390;2023-06-19T07:26:21;1.42;;;1.27;;
53718;SDS011;39616;48.872;9.390;2023-06-19T07:28:51;3.05;;;1.15;;
53718;SDS011;39616;48.872;9.390;2023-06-19T07:31:21;3.42;;;1.20;;
53718;SDS011;39616;48.872;9.390;2023-06-19T07:33:52;1.58;;;1.10;;
53718;SDS011;39616;48.872;9.390;2023-06-19T07:36:22;4.70;;;1.30;;
53718;SDS011;39616;48.872;9.390;2023-06-19T07:38:52;1.50;;;1.40;;
53718;SDS011;39616;48.872;9.390;2023-06-19T07:41:23;1.60;;;1.30;;
53718;SDS011;39616;48.872;9.390;2023-06-19T07:43:53;1.40;;;1.05;;
53718;SDS011;39616;48.872;9.390;2023-06-19T07:46:23;1.35;;;1.10;;
53718;SDS011;39616;48.872;9.390;2023-06-19T07:48:54;2.55;;;1.20;;
53718;SDS011;39616;48.872;9.390;2023-06-19T07:51:24;5.30;;;1.27;;
53718;SDS011;39616;48.872;9.390;2023-06-19T07:53:54;1.25;;;1.10;;
53718;SDS011;39616;48.872;9.390;2023-06-19T07:56:24;2.63;;;1.00;;
53718;SDS011;39616;48.872;9.390;2023-06-19T07:58:55;3.50;;;1.10;;
53718;SDS011;39616;48.872;9.390;2023-06-19T08:01:25;1.33;;;1.23;;
53718;SDS011;39616;48.872;9.390;2023-06-19T08:03:55;1.15;;;1.05;;
53718;SDS011;39616;48.872;9.390;2023-06-19T08:06:26;3.63;;;1.30;;
53718;SDS011;39616;48.872;9.390;2023-06-19T08:08:56;1.10;;;1.00;;
53718;SDS011;39616;48.872;9.390;2023-06-19T08:11:26;1.40;;;1.02;;
53718;SDS011;39616;48.872;9.390;2023-06-19T08:13:56;0.95;;;0.90;;
53718;SDS011;39616;48.872;9.390;2023-06-19T08:16:27;1.10;;;0.80;;
53718;SDS011;39616;48.872;9.390;2023-06-19T08:18:57;1.98;;;0.93;;
53718;SDS011;39616;48.872;9.390;2023-06-19T08:21:27;1.42;;;1.00;;
53718;SDS011;39616;48.872;9.390;2023-06-19T08:23:57;2.75;;;1.00;;
53718;SDS011;39616;48.872;9.390;2023-06-19T08:26:28;2.58;;;0.98;;
53718;SDS011;39616;48.872;9.390;2023-06-19T08:28:58;1.83;;;0.80;;
53718;SDS011;39616;48.872;9.390;2023-06-19T08:31:29;1.88;;;0.85;;
53718;SDS011;39616;48.872;9.390;2023-06-19T08:33:59;6.78;;;0.90;;
53718;SDS011;39616;48.872;9.390;2023-06-19T08:36:30;2.30;;;0.80;;
53718;SDS011;39616;48.872;9.390;2023-06-19T08:39:00;3.05;;;0.90;;
53718;SDS011;39616;48.872;9.390;2023-06-19T08:41:31;1.58;;;1.00;;
53718;SDS011;39616;48.872;9.390;2023-06-19T08:44:01;0.80;;;0.80;;
53718;SDS011;39616;48.872;9.390;2023-06-19T08:46:33;1.77;;;0.73;;
53718;SDS011;39616;48.872;9.390;2023-06-19T08:49:04;0.70;;;0.70;;
53718;SDS011;39616;48.872;9.390;2023-06-19T08:51:36;1.08;;;0.80;;
53718;SDS011;39616;48.872;9.390;2023-06-19T08:54:07;2.28;;;0.73;;
53718;SDS011;39616;48.872;9.390;2023-06-19T08:56:38;1.85;;;0.90;;
53718;SDS011;39616;48.872;9.390;2023-06-19T09:01:46;1.63;;;0.85;;
53718;SDS011;39616;48.872;9.390;2023-06-19T09:04:23;3.70;;;0.70;;
53718;SDS011;39616;48.872;9.390;2023-06-19T09:06:57;2.78;;;0.80;;
53718;SDS011;39616;48.872;9.390;2023-06-19T09:09:32;2.17;;;1.27;;
53718;SDS011;39616;48.872;9.390;2023-06-19T09:12:03;2.60;;;0.90;;
53718;SDS011;39616;48.872;9.390;2023-06-19T09:14:39;0.80;;;0.80;;
53718;SDS011;39616;48.872;9.390;2023-06-19T09:17:18;1.10;;;0.90;;
53718;SDS011;39616;48.872;9.390;2023-06-19T09:19:50;2.55;;;0.90;;
53718;SDS011;39616;48.872;9.390;2023-06-19T09:22:22;1.80;;;0.90;;
53718;SDS011;39616;48.872;9.390;2023-06-19T09:24:52;2.15;;;1.00;;
53718;SDS011;39616;48.872;9.390;2023-06-19T09:27:22;0.90;;;0.90;;
53718;SDS011;39616;48.872;9.390;2023-06-19T09:29:53;9.27;;;1.30;;
53718;SDS011;39616;48.872;9.390;2023-06-19T09:32:24;1.35;;;1.00;;
53718;SDS011;39616;48.872;9.390;2023-06-19T09:34:57;4.95;;;1.27;;
53718;SDS011;39616;48.872;9.390;2023-06-19T09:37:30;1.33;;;0.95;;
53718;SDS011;39616;48.872;9.390;2023-06-19T09:40:02;1.67;;;1.15;;
53718;SDS011;39616;48.872;9.390;2023-06-19T09:42:41;1.77;;;1.15;;
53718;SDS011;39616;48.872;9.390;2023-06-19T09:47:48;1.75;;;1.10;;
53718;SDS011;39616;48.872;9.390;2023-06-19T09:50:23;1.70;;;1.30;;
53718;SDS011;39616;48.872;9.390;2023-06-19T09:52:57;1.05;;;1.00;;
53718;SDS011;39616;48.872;9.390;2023-06-19T09:55:27;3.05;;;1.30;;
53718;SDS011;39616;48.872;9.390;2023-06-19T09:58:00;2.05;;;1.20;;
53718;SDS011;39616;48.872;9.390;2023-06-19T10:00:32;1.85;;;1.33;;
53718;SDS011;39616;48.872;9.390;2023-06-19T10:03:04;4.25;;;1.00;;
53718;SDS011;39616;48.872;9.390;2023-06-19T10:05:42;3.10;;;1.30;;
53718;SDS011;39616;48.872;9.390;2023-06-19T10:08:13;1.00;;;1.00;;
53718;SDS011;39616;48.872;9.390;2023-06-19T10:10:47;1.38;;;1.23;;
53718;SDS011;39616;48.872;9.390;2023-06-19T10:13:20;1.60;;;1.17;;
53718;SDS011;39616;48.872;9.390;2023-06-19T10:15:50;1.20;;;1.10;;
53718;SDS011;39616;48.872;9.390;2023-06-19T10:18:20;1.30;;;1.20;;
53718;SDS011;39616;48.872;9.390;2023-06-19T10:20:51;4.13;;;1.10;;
53718;SDS011;39616;48.872;9.390;2023-06-19T10:23:22;1.52;;;1.17;;
53718;SDS011;39616;48.872;9.390;2023-06-19T10:28:27;1.07;;;1.00;;
53718;SDS011;39616;48.872;9.390;2023-06-19T10:31:03;2.42;;;1.30;;
53718;SDS011;39616;48.872;9.390;2023-06-19T10:33:35;1.67;;;1.20;;
53718;SDS011;39616;48.872;9.390;2023-06-19T10:36:13;4.18;;;1.00;;
53718;SDS011;39616;48.872;9.390;2023-06-19T10:38:49;2.00;;;1.20;;
53718;SDS011;39616;48.872;9.390;2023-06-19T10:41:20;1.38;;;1.20;;
53718;SDS011;39616;48.872;9.390;2023-06-19T10:43:53;1.60;;;1.20;;
53718;SDS011;39616;48.872;9.390;2023-06-19T10:46:28;1.75;;;1.30;;
53718;SDS011;39616;48.872;9.390;2023-06-19T10:49:00;3.00;;;1.70;;
53718;SDS011;39616;48.872;9.390;2023-06-19T10:51:34;1.48;;;1.30;;
53718;SDS011;39616;48.872;9.390;2023-06-19T10:54:06;4.18;;;1.42;;
53718;SDS011;39616;48.872;9.390;2023-06-19T10:56:36;2.35;;;1.55;;
53718;SDS011;39616;48.872;9.390;2023-06-19T10:59:09;4.57;;;1.50;;
53718;SDS011;39616;48.872;9.390;2023-06-19T11:01:42;1.27;;;1.17;;
53718;SDS011;39616;48.872;9.390;2023-06-19T11:04:14;2.25;;;1.45;;
53718;SDS011;39616;48.872;9.390;2023-06-19T11:06:48;1.83;;;1.58;;
53718;SDS011;39616;48.872;9.390;2023-06-19T11:09:19;2.15;;;1.50;;
53718;SDS011;39616;48.872;9.390;2023-06-19T11:11:49;1.60;;;1.50;;
53718;SDS011;39616;48.872;9.390;2023-06-19T11:14:19;5.68;;;1.40;;
53718;SDS011;39616;48.872;9.390;2023-06-19T11:16:50;2.10;;;1.38;;
53718;SDS011;39616;48.872;9.390;2023-06-19T11:19:21;2.13;;;1.50;;
53718;SDS011;39616;48.872;9.390;2023-06-19T11:21:53;1.60;;;1.38;;
53718;SDS011;39616;48.872;9.390;2023-06-19T11:24:24;3.50;;;1.40;;
53718;SDS011;39616;48.872;9.390;2023-06-19T11:26:55;3.38;;;1.45;;
53718;SDS011;39616;48.872;9.390;2023-06-19T11:29:29;2.80;;;1.35;;
53718;SDS011;39616;48.872;9.390;2023-06-19T11:32:04;2.50;;;1.27;;
53718;SDS011;39616;48.872;9.390;2023-06-19T11:34:36;2.10;;;1.35;;
53718;SDS011;39616;48.872;9.390;2023-06-19T11:37:13;1.67;;;1.42;;
53718;SDS011;39616;48.872;9.390;2023-06-19T11:39:49;4.32;;;1.80;;
53718;SDS011;39616;48.872;9.390;2023-06-19T11:42:22;1.88;;;1.40;;
53718;SDS011;39616;48.872;9.390;2023-06-19T11:47:24;1.42;;;1.23;;
53718;SDS011;39616;48.872;9.390;2023-06-19T11:49:55;3.85;;;1.63;;
53718;SDS011;39616;48.872;9.390;2023-06-19T11:52:26;7.78;;;1.60;;
53718;SDS011;39616;48.872;9.390;2023-06-19T11:54:56;1.27;;;1.17;;
53718;SDS011;39616;48.872;9.390;2023-06-19T11:57:26;1.55;;;1.45;;
53718;SDS011;39616;48.872;9.390;2023-06-19T11:59:57;1.40;;;1.23;;
53718;SDS011;39616;48.872;9.390;2023-06-19T12:02:27;3.85;;;1.20;;
53718;SDS011;39616;48.872;9.390;2023-06-19T12:04:57;1.33;;;1.10;;
53718;SDS011;39616;48.872;9.390;2023-06-19T12:07:28;3.45;;;1.35;;
53718;SDS011;39616;48.872;9.390;2023-06-19T12:09:58;1.33;;;1.23;;
53718;SDS011;39616;48.872;9.390;2023-06-19T12:12:28;3.63;;;1.40;;
53718;SDS011;39616;48.872;9.390;2023-06-19T12:15:00;2.38;;;1.92;;
53718;SDS011;39616;48.872;9.390;2023-06-19T12:17:30;2.17;;;1.45;;
53718;SDS011;39616;48.872;9.390;2023-06-19T12:20:01;1.40;;;1.30;;
53718;SDS011;39616;48.872;9.390;2023-06-19T12:22:33;1.63;;;1.45;;
53718;SDS011;39616;48.872;9.390;2023-06-19T12:25:04;1.95;;;1.63;;
53718;SDS011;39616;48.872;9.390;2023-06-19T12:27:35;4.40;;;1.65;;
53718;SDS011;39616;48.872;9.390;2023-06-19T12:30:05;4.03;;;1.30;;
53718;SDS011;39616;48.872;9.390;2023-06-19T12:32:36;2.38;;;1.40;;
53718;SDS011;39616;48.872;9.390;2023-06-19T12:35:06;2.55;;;1.52;;
53718;SDS011;39616;48.872;9.390;2023-06-19T12:37:37;1.85;;;1.40;;
53718;SDS011;39616;48.872;9.390;2023-06-19T12:40:07;2.05;;;1.48;;
53718;SDS011;39616;48.872;9.390;2023-06-19T12:42:40;1.92;;;1.75;;
53718;SDS011;39616;48.872;9.390;2023-06-19T12:45:11;1.30;;;1.20;;
53718;SDS011;39616;48.872;9.390;2023-06-19T12:47:41;3.92;;;1.60;;
53718;SDS011;39616;48.872;9.390;2023-06-19T12:50:11;3.97;;;1.30;;
53718;SDS011;39616;48.872;9.390;2023-06-19T12:52:42;2.10;;;1.25;;
53718;SDS011;39616;48.872;9.390;2023-06-19T12:55:12;1.50;;;1.40;;
53718;SDS011;39616;48.872;9.390;2023-06-19T12:57:42;2.45;;;1.45;;
53718;SDS011;39616;48.872;9.390;2023-06-19T13:00:14;1.92;;;1.30;;
53718;SDS011;39616;48.872;9.390;2023-06-19T13:02:45;3.55;;;1.50;;
53718;SDS011;39616;48.872;9.390;2023-06-19T13:05:16;1.40;;;1.30;;
53718;SDS011;39616;48.872;9.390;2023-06-19T13:07:46;1.35;;;1.25;;
53718;SDS011;39616;48.872;9.390;2023-06-19T13:10:16;3.47;;;1.20;;
53718;SDS011;39616;48.872;9.390;2023-06-19T13:12:47;3.13;;;1.45;;
53718;SDS011;39616;48.872;9.390;2023-06-19T13:15:17;2.00;;;1.40;;
53718;SDS011;39616;48.872;9.390;2023-06-19T13:17:47;1.50;;;1.40;;
53718;SDS011;39616;48.872;9.390;2023-06-19T13:20:17;1.73;;;1.48;;
53718;SDS011;39616;48.872;9.390;2023-06-19T13:22:48;1.80;;;1.52;;
53718;SDS011;39616;48.872;9.390;2023-06-19T13:25:19;1.77;;;1.20;;
53718;SDS011;39616;48.872;9.390;2023-06-19T13:27:50;1.30;;;1.20;;
53718;SDS011;39616;48.872;9.390;2023-06-19T13:30:20;2.38;;;1.58;;
53718;SDS011;39616;48.872;9.390;2023-06-19T13:32:51;3.83;;;1.13;;
53718;SDS011;39616;48.872;9.390;2023-06-19T13:35:21;4.32;;;1.45;;
53718;SDS011;39616;48.872;9.390;2023-06-19T13:37:51;1.17;;;1.05;;
53718;SDS011;39616;48.872;9.390;2023-06-19T13:40:22;4.40;;;1.30;;
53718;SDS011;39616;48.872;9.390;2023-06-19T13:42:52;1.63;;;1.20;;
53718;SDS011;39616;48.872;9.390;2023-06-19T13:45:22;1.50;;;1.30;;
53718;SDS011;39616;48.872;9.390;2023-06-19T13:47:53;1.40;;;1.30;;
53718;SDS011;39616;48.872;9.390;2023-06-19T13:50:23;2.28;;;1.20;;
53718;SDS011;39616;48.872;9.390;2023-06-19T13:52:54;2.30;;;1.30;;
53718;SDS011;39616;48.872;9.390;2023-06-19T13:55:24;1.60;;;1.33;;
53718;SDS011;39616;48.872;9.390;2023-06-19T13:57:54;4.20;;;1.95;;
53718;SDS011;39616;48.872;9.390;2023-06-19T14:00:25;3.17;;;1.30;;
53718;SDS011;39616;48.872;9.390;2023-06-19T14:02:55;1.42;;;1.30;;
53718;SDS011;39616;48.872;9.390;2023-06-19T14:05:26;1.55;;;1.45;;
53718;SDS011;39616;48.872;9.390;2023-06-19T14:07:56;1.60;;;1.30;;
53718;SDS011;39616;48.872;9.390;2023-06-19T14:10:26;2.45;;;1.67;;
53718;SDS011;39616;48.872;9.390;2023-06-19T14:12:58;8.38;;;1.30;;
53718;SDS011;39616;48.872;9.390;2023-06-19T14:15:28;2.10;;;1.65;;
53718;SDS011;39616;48.872;9.390;2023-06-19T14:17:58;4.63;;;1.73;;
53718;SDS011;39616;48.872;9.390;2023-06-19T14:20:29;4.00;;;1.23;;
53718;SDS011;39616;48.872;9.390;2023-06-19T14:23:02;5.18;;;1.35;;
53718;SDS011;39616;48.872;9.390;2023-06-19T14:25:32;1.85;;;1.50;;
53718;SDS011;39616;48.872;9.390;2023-06-19T14:28:03;4.22;;;1.45;;
53718;SDS011;39616;48.872;9.390;2023-06-19T14:30:34;1.52;;;1.42;;
53718;SDS011;39616;48.872;9.390;2023-06-19T14:33:04;1.35;;;1.25;;
53718;SDS011;39616;48.872;9.390;2023-06-19T14:35:35;3.13;;;1.27;;
53718;SDS011;39616;48.872;9.390;2023-06-19T14:38:05;3.55;;;1.20;;
53718;SDS011;39616;48.872;9.390;2023-06-19T14:40:35;1.27;;;1.17;;
53718;SDS011;39616;48.872;9.390;2023-06-19T14:43:06;6.45;;;1.70;;
53718;SDS011;39616;48.872;9.390;2023-06-19T14:45:36;3.38;;;1.40;;
53718;SDS011;39616;48.872;9.390;2023-06-19T14:48:08;1.52;;;1.27;;
53718;SDS011;39616;48.872;9.390;2023-06-19T14:50:38;4.20;;;1.40;;
53718;SDS011;39616;48.872;9.390;2023-06-19T14:53:08;1.30;;;1.20;;
53718;SDS011;39616;48.872;9.390;2023-06-19T14:55:39;2.35;;;1.30;;
53718;SDS011;39616;48.872;9.390;2023-06-19T14:58:13;2.33;;;1.30;;
53718;SDS011;39616;48.872;9.390;2023-06-19T15:00:44;1.65;;;1.40;;
53718;SDS011;39616;48.872;9.390;2023-06-19T15:03:14;1.83;;;1.35;;
53718;SDS011;39616;48.872;9.390;2023-06-19T15:05:44;2.83;;;1.20;;
53718;SDS011;39616;48.872;9.390;2023-06-19T15:08:15;2.85;;;1.27;;
53718;SDS011;39616;48.872;9.390;2023-06-19T15:10:51;1.35;;;1.25;;
53718;SDS011;39616;48.872;9.390;2023-06-19T15:13:21;1.60;;;1.50;;
53718;SDS011;39616;48.872;9.390;2023-06-19T15:15:51;2.33;;;1.40;;
53718;SDS011;39616;48.872;9.390;2023-06-19T15:18:22;3.17;;;1.70;;
53718;SDS011;39616;48.872;9.390;2023-06-19T15:20:54;3.13;;;1.40;;